sensor_id;sensor_type;location;lat;lon;timestamp;temperature;humidity
28374;DHT22;15616;40.148;-102.718;2022-07-22T00:00:11;25.40;53.50
28374;DHT22;15616;40.148;-102.718;2022-07-22T00:02:37;25.40;53.60
28374;DHT22;15616;40.148;-102.718;2022-07-22T00:05:03;25.30;53.50
28374;DHT22;15616;40.148;-102.718;2022-07-22T00:07:29;25.40;53.60
28374;DHT22;15616;40.148;-102.718;2022-07-22T00:09:55;25.30;53.50
28374;DHT22;15616;40.148;-102.718;2022-07-22T00:12:21;25.30;53.60
28374;DHT22;15616;40.148;-102.718;2022-07-22T00:14:47;25.40;53.60
28374;DHT22;15616;40.148;-102.718;2022-07-22T00:17:13;25.40;53.60
28374;DHT22;15616;40.148;-102.718;2022-07-22T00:19:39;25.30;53.50
28374;DHT22;15616;40.148;-102.718;2022-07-22T00:22:05;25.40;53.50
28374;DHT22;15616;40.148;-102.718;2022-07-22T00:24:31;25.40;53.50
28374;DHT22;15616;40.148;-102.718;2022-07-22T00:26:57;25.30;53.50
28374;DHT22;15616;40.148;-102.718;2022-07-22T00:29:23;25.40;53.50
28374;DHT22;15616;40.148;-102.718;2022-07-22T00:31:49;25.40;53.50
28374;DHT22;15616;40.148;-102.718;2022-07-22T00:34:14;25.40;53.50
28374;DHT22;15616;40.148;-102.718;2022-07-22T00:36:41;25.30;53.50
28374;DHT22;15616;40.148;-102.718;2022-07-22T00:39:06;25.40;53.50
28374;DHT22;15616;40.148;-102.718;2022-07-22T00:41:32;25.30;53.50
28374;DHT22;15616;40.148;-102.718;2022-07-22T00:44:05;25.30;53.40
28374;DHT22;15616;40.148;-102.718;2022-07-22T00:46:32;25.40;53.50
28374;DHT22;15616;40.148;-102.718;2022-07-22T00:48:58;25.40;53.50
28374;DHT22;15616;40.148;-102.718;2022-07-22T00:51:25;25.40;53.50
28374;DHT22;15616;40.148;-102.718;2022-07-22T00:53:53;25.40;53.50
28374;DHT22;15616;40.148;-102.718;2022-07-22T00:56:19;25.30;53.40
28374;DHT22;15616;40.148;-102.718;2022-07-22T00:58:48;25.40;53.50
28374;DHT22;15616;40.148;-102.718;2022-07-22T01:01:15;25.30;53.40
28374;DHT22;15616;40.148;-102.718;2022-07-22T01:03:41;25.30;53.40
28374;DHT22;15616;40.148;-102.718;2022-07-22T01:06:08;25.40;53.50
28374;DHT22;15616;40.148;-102.718;2022-07-22T01:08:34;25.40;53.50
28374;DHT22;15616;40.148;-102.718;2022-07-22T01:11:11;25.30;53.50
28374;DHT22;15616;40.148;-102.718;2022-07-22T01:13:37;25.30;53.50
28374;DHT22;15616;40.148;-102.718;2022-07-22T01:16:04;25.30;53.50
28374;DHT22;15616;40.148;-102.718;2022-07-22T01:18:31;25.30;53.50
28374;DHT22;15616;40.148;-102.718;2022-07-22T01:20:58;25.30;53.50
28374;DHT22;15616;40.148;-102.718;2022-07-22T01:23:23;25.30;53.50
28374;DHT22;15616;40.148;-102.718;2022-07-22T01:25:49;25.30;53.50
28374;DHT22;15616;40.148;-102.718;2022-07-22T01:28:15;25.30;53.50
28374;DHT22;15616;40.148;-102.718;2022-07-22T01:30:41;25.30;53.50
28374;DHT22;15616;40.148;-102.718;2022-07-22T01:33:07;25.30;53.50
28374;DHT22;15616;40.148;-102.718;2022-07-22T01:35:33;25.30;53.50
28374;DHT22;15616;40.148;-102.718;2022-07-22T01:37:59;25.30;53.40
28374;DHT22;15616;40.148;-102.718;2022-07-22T01:40:26;25.30;53.50
28374;DHT22;15616;40.148;-102.718;2022-07-22T01:42:51;25.30;53.50
28374;DHT22;15616;40.148;-102.718;2022-07-22T01:45:17;25.30;53.40
28374;DHT22;15616;40.148;-102.718;2022-07-22T01:47:43;25.30;53.40
28374;DHT22;15616;40.148;-102.718;2022-07-22T01:50:12;25.30;53.40
28374;DHT22;15616;40.148;-102.718;2022-07-22T01:52:39;25.30;53.40
28374;DHT22;15616;40.148;-102.718;2022-07-22T01:55:08;25.30;53.40
28374;DHT22;15616;40.148;-102.718;2022-07-22T01:57:38;25.30;53.40
28374;DHT22;15616;40.148;-102.718;2022-07-22T02:00:09;25.30;53.50
28374;DHT22;15616;40.148;-102.718;2022-07-22T02:02:36;25.30;53.50
28374;DHT22;15616;40.148;-102.718;2022-07-22T02:05:04;25.20;53.50
28374;DHT22;15616;40.148;-102.718;2022-07-22T02:07:30;25.30;53.50
28374;DHT22;15616;40.148;-102.718;2022-07-22T02:09:56;25.30;53.40
28374;DHT22;15616;40.148;-102.718;2022-07-22T02:12:22;25.30;53.50
28374;DHT22;15616;40.148;-102.718;2022-07-22T02:14:48;25.30;53.50
28374;DHT22;15616;40.148;-102.718;2022-07-22T02:17:14;25.20;53.50
28374;DHT22;15616;40.148;-102.718;2022-07-22T02:19:41;25.20;53.50
28374;DHT22;15616;40.148;-102.718;2022-07-22T02:22:07;25.20;53.50
28374;DHT22;15616;40.148;-102.718;2022-07-22T02:24:33;25.20;53.50
28374;DHT22;15616;40.148;-102.718;2022-07-22T02:26:59;25.20;53.50
28374;DHT22;15616;40.148;-102.718;2022-07-22T02:29:25;25.20;53.50
28374;DHT22;15616;40.148;-102.718;2022-07-22T02:31:52;25.20;53.50
28374;DHT22;15616;40.148;-102.718;2022-07-22T02:34:18;25.20;53.50
28374;DHT22;15616;40.148;-102.718;2022-07-22T02:36:44;25.10;53.30
28374;DHT22;15616;40.148;-102.718;2022-07-22T02:39:10;25.20;53.40
28374;DHT22;15616;40.148;-102.718;2022-07-22T02:41:36;25.10;53.40
28374;DHT22;15616;40.148;-102.718;2022-07-22T02:44:03;25.20;53.50
28374;DHT22;15616;40.148;-102.718;2022-07-22T02:46:29;25.20;53.40
28374;DHT22;15616;40.148;-102.718;2022-07-22T02:48:55;25.10;53.30
28374;DHT22;15616;40.148;-102.718;2022-07-22T02:51:21;25.20;53.40
28374;DHT22;15616;40.148;-102.718;2022-07-22T02:53:47;25.10;53.30
28374;DHT22;15616;40.148;-102.718;2022-07-22T02:56:14;25.10;53.30
28374;DHT22;15616;40.148;-102.718;2022-07-22T02:58:40;25.20;53.40
28374;DHT22;15616;40.148;-102.718;2022-07-22T03:01:06;25.10;53.20
28374;DHT22;15616;40.148;-102.718;2022-07-22T03:03:32;25.10;53.30
28374;DHT22;15616;40.148;-102.718;2022-07-22T03:05:59;25.10;53.30
28374;DHT22;15616;40.148;-102.718;2022-07-22T03:08:25;25.10;53.20
28374;DHT22;15616;40.148;-102.718;2022-07-22T03:10:51;25.10;53.20
28374;DHT22;15616;40.148;-102.718;2022-07-22T03:13:17;25.20;53.40
28374;DHT22;15616;40.148;-102.718;2022-07-22T03:15:44;25.10;53.30
28374;DHT22;15616;40.148;-102.718;2022-07-22T03:18:09;25.10;53.30
28374;DHT22;15616;40.148;-102.718;2022-07-22T03:20:36;25.10;53.30
28374;DHT22;15616;40.148;-102.718;2022-07-22T03:23:02;25.10;53.20
28374;DHT22;15616;40.148;-102.718;2022-07-22T03:25:28;25.10;53.20
28374;DHT22;15616;40.148;-102.718;2022-07-22T03:27:56;25.20;53.30
28374;DHT22;15616;40.148;-102.718;2022-07-22T03:30:22;25.20;53.30
28374;DHT22;15616;40.148;-102.718;2022-07-22T03:32:49;25.10;53.20
28374;DHT22;15616;40.148;-102.718;2022-07-22T03:35:15;25.10;53.30
28374;DHT22;15616;40.148;-102.718;2022-07-22T03:37:42;25.10;53.10
28374;DHT22;15616;40.148;-102.718;2022-07-22T03:40:09;25.10;53.10
28374;DHT22;15616;40.148;-102.718;2022-07-22T03:42:36;25.10;53.10
28374;DHT22;15616;40.148;-102.718;2022-07-22T03:45:02;25.20;53.20
28374;DHT22;15616;40.148;-102.718;2022-07-22T03:47:28;25.20;53.20
28374;DHT22;15616;40.148;-102.718;2022-07-22T03:49:54;25.20;53.20
28374;DHT22;15616;40.148;-102.718;2022-07-22T03:52:22;25.20;53.10
28374;DHT22;15616;40.148;-102.718;2022-07-22T03:54:48;25.20;53.10
28374;DHT22;15616;40.148;-102.718;2022-07-22T03:57:14;25.20;53.20
28374;DHT22;15616;40.148;-102.718;2022-07-22T03:59:40;25.20;53.20
28374;DHT22;15616;40.148;-102.718;2022-07-22T04:02:06;25.10;53.00
28374;DHT22;15616;40.148;-102.718;2022-07-22T04:04:32;25.10;53.00
28374;DHT22;15616;40.148;-102.718;2022-07-22T04:06:58;25.10;53.00
28374;DHT22;15616;40.148;-102.718;2022-07-22T04:09:24;25.20;53.00
28374;DHT22;15616;40.148;-102.718;2022-07-22T04:11:50;25.20;53.00
28374;DHT22;15616;40.148;-102.718;2022-07-22T04:14:19;25.20;53.00
28374;DHT22;15616;40.148;-102.718;2022-07-22T04:16:46;25.20;53.00
28374;DHT22;15616;40.148;-102.718;2022-07-22T04:19:12;25.20;53.00
28374;DHT22;15616;40.148;-102.718;2022-07-22T04:21:38;25.10;52.90
28374;DHT22;15616;40.148;-102.718;2022-07-22T04:24:05;25.10;52.90
28374;DHT22;15616;40.148;-102.718;2022-07-22T04:26:31;25.10;52.90
28374;DHT22;15616;40.148;-102.718;2022-07-22T04:28:57;25.10;52.90
28374;DHT22;15616;40.148;-102.718;2022-07-22T04:31:23;25.10;52.90
28374;DHT22;15616;40.148;-102.718;2022-07-22T04:33:48;25.10;52.90
28374;DHT22;15616;40.148;-102.718;2022-07-22T04:36:14;25.10;52.90
28374;DHT22;15616;40.148;-102.718;2022-07-22T04:38:40;25.10;52.90
28374;DHT22;15616;40.148;-102.718;2022-07-22T04:41:06;25.20;53.00
28374;DHT22;15616;40.148;-102.718;2022-07-22T04:43:33;25.10;52.80
28374;DHT22;15616;40.148;-102.718;2022-07-22T04:45:59;25.10;52.80
28374;DHT22;15616;40.148;-102.718;2022-07-22T04:48:25;25.20;52.90
28374;DHT22;15616;40.148;-102.718;2022-07-22T04:50:51;25.10;52.80
28374;DHT22;15616;40.148;-102.718;2022-07-22T04:53:17;25.10;52.90
28374;DHT22;15616;40.148;-102.718;2022-07-22T04:55:43;25.10;53.10
28374;DHT22;15616;40.148;-102.718;2022-07-22T04:58:09;25.10;53.10
28374;DHT22;15616;40.148;-102.718;2022-07-22T05:00:35;25.00;53.00
28374;DHT22;15616;40.148;-102.718;2022-07-22T05:03:00;25.10;53.10
28374;DHT22;15616;40.148;-102.718;2022-07-22T05:05:26;25.00;53.00
28374;DHT22;15616;40.148;-102.718;2022-07-22T05:07:52;25.00;53.00
28374;DHT22;15616;40.148;-102.718;2022-07-22T05:10:18;25.00;53.00
28374;DHT22;15616;40.148;-102.718;2022-07-22T05:12:44;25.10;53.10
28374;DHT22;15616;40.148;-102.718;2022-07-22T05:15:10;25.10;53.10
28374;DHT22;15616;40.148;-102.718;2022-07-22T05:17:36;25.10;53.00
28374;DHT22;15616;40.148;-102.718;2022-07-22T05:20:03;25.00;53.10
28374;DHT22;15616;40.148;-102.718;2022-07-22T05:22:31;25.10;53.10
28374;DHT22;15616;40.148;-102.718;2022-07-22T05:24:57;25.00;53.10
28374;DHT22;15616;40.148;-102.718;2022-07-22T05:27:23;25.00;53.10
28374;DHT22;15616;40.148;-102.718;2022-07-22T05:29:49;25.00;53.10
28374;DHT22;15616;40.148;-102.718;2022-07-22T05:32:15;25.00;53.20
28374;DHT22;15616;40.148;-102.718;2022-07-22T05:34:41;25.00;53.20
28374;DHT22;15616;40.148;-102.718;2022-07-22T05:37:07;25.00;53.30
28374;DHT22;15616;40.148;-102.718;2022-07-22T05:39:33;24.90;53.30
28374;DHT22;15616;40.148;-102.718;2022-07-22T05:41:59;25.00;53.30
28374;DHT22;15616;40.148;-102.718;2022-07-22T05:44:25;24.90;53.30
28374;DHT22;15616;40.148;-102.718;2022-07-22T05:46:51;24.90;53.30
28374;DHT22;15616;40.148;-102.718;2022-07-22T05:49:17;25.00;53.40
28374;DHT22;15616;40.148;-102.718;2022-07-22T05:51:43;25.00;53.40
28374;DHT22;15616;40.148;-102.718;2022-07-22T05:54:09;25.00;53.40
28374;DHT22;15616;40.148;-102.718;2022-07-22T05:56:35;24.90;53.40
28374;DHT22;15616;40.148;-102.718;2022-07-22T05:59:01;24.90;53.50
28374;DHT22;15616;40.148;-102.718;2022-07-22T06:01:27;25.00;53.50
28374;DHT22;15616;40.148;-102.718;2022-07-22T06:03:53;24.90;53.50
28374;DHT22;15616;40.148;-102.718;2022-07-22T06:06:19;24.90;53.60
28374;DHT22;15616;40.148;-102.718;2022-07-22T06:08:45;25.00;53.60
28374;DHT22;15616;40.148;-102.718;2022-07-22T06:11:11;24.90;53.60
28374;DHT22;15616;40.148;-102.718;2022-07-22T06:13:37;24.90;54.20
28374;DHT22;15616;40.148;-102.718;2022-07-22T06:16:04;24.90;53.60
28374;DHT22;15616;40.148;-102.718;2022-07-22T06:18:30;25.00;53.70
28374;DHT22;15616;40.148;-102.718;2022-07-22T06:20:56;24.90;53.60
28374;DHT22;15616;40.148;-102.718;2022-07-22T06:23:25;24.90;53.60
28374;DHT22;15616;40.148;-102.718;2022-07-22T06:25:52;24.90;54.40
28374;DHT22;15616;40.148;-102.718;2022-07-22T06:28:17;24.90;53.60
28374;DHT22;15616;40.148;-102.718;2022-07-22T06:30:43;24.90;53.60
28374;DHT22;15616;40.148;-102.718;2022-07-22T06:33:09;25.00;53.60
28374;DHT22;15616;40.148;-102.718;2022-07-22T06:35:38;25.00;53.50
28374;DHT22;15616;40.148;-102.718;2022-07-22T06:38:05;25.00;53.40
28374;DHT22;15616;40.148;-102.718;2022-07-22T06:40:32;25.00;53.30
28374;DHT22;15616;40.148;-102.718;2022-07-22T06:42:58;25.00;53.30
28374;DHT22;15616;40.148;-102.718;2022-07-22T06:45:24;25.10;53.20
28374;DHT22;15616;40.148;-102.718;2022-07-22T06:47:50;25.10;53.10
28374;DHT22;15616;40.148;-102.718;2022-07-22T06:50:16;25.10;53.00
28374;DHT22;15616;40.148;-102.718;2022-07-22T06:52:42;25.10;53.00
28374;DHT22;15616;40.148;-102.718;2022-07-22T06:55:09;25.10;53.00
28374;DHT22;15616;40.148;-102.718;2022-07-22T06:57:36;25.10;52.90
28374;DHT22;15616;40.148;-102.718;2022-07-22T07:00:04;25.10;52.90
28374;DHT22;15616;40.148;-102.718;2022-07-22T07:02:31;25.10;53.60
28374;DHT22;15616;40.148;-102.718;2022-07-22T07:04:57;25.10;52.90
28374;DHT22;15616;40.148;-102.718;2022-07-22T07:07:23;25.10;52.80
28374;DHT22;15616;40.148;-102.718;2022-07-22T07:09:49;25.10;52.80
28374;DHT22;15616;40.148;-102.718;2022-07-22T07:12:15;25.10;52.70
28374;DHT22;15616;40.148;-102.718;2022-07-22T07:14:41;25.20;52.70
28374;DHT22;15616;40.148;-102.718;2022-07-22T07:17:07;25.20;52.70
28374;DHT22;15616;40.148;-102.718;2022-07-22T07:19:33;25.20;52.60
28374;DHT22;15616;40.148;-102.718;2022-07-22T07:21:59;25.20;52.60
28374;DHT22;15616;40.148;-102.718;2022-07-22T07:24:25;25.20;52.60
28374;DHT22;15616;40.148;-102.718;2022-07-22T07:26:52;25.20;52.50
28374;DHT22;15616;40.148;-102.718;2022-07-22T07:29:17;25.20;52.40
28374;DHT22;15616;40.148;-102.718;2022-07-22T07:31:43;25.20;52.40
28374;DHT22;15616;40.148;-102.718;2022-07-22T07:34:09;25.20;52.30
28374;DHT22;15616;40.148;-102.718;2022-07-22T07:36:35;25.20;52.20
28374;DHT22;15616;40.148;-102.718;2022-07-22T07:39:02;25.30;52.20
28374;DHT22;15616;40.148;-102.718;2022-07-22T07:41:28;25.20;52.10
28374;DHT22;15616;40.148;-102.718;2022-07-22T07:43:54;25.20;52.10
28374;DHT22;15616;40.148;-102.718;2022-07-22T07:46:20;25.20;52.10
28374;DHT22;15616;40.148;-102.718;2022-07-22T07:48:46;25.20;52.20
28374;DHT22;15616;40.148;-102.718;2022-07-22T07:51:14;25.20;52.20
28374;DHT22;15616;40.148;-102.718;2022-07-22T07:53:40;25.20;52.00
28374;DHT22;15616;40.148;-102.718;2022-07-22T07:56:06;25.20;52.60
28374;DHT22;15616;40.148;-102.718;2022-07-22T07:58:32;25.20;52.60
28374;DHT22;15616;40.148;-102.718;2022-07-22T08:00:58;25.20;51.80
28374;DHT22;15616;40.148;-102.718;2022-07-22T08:03:24;25.20;51.70
28374;DHT22;15616;40.148;-102.718;2022-07-22T08:05:50;25.20;51.70
28374;DHT22;15616;40.148;-102.718;2022-07-22T08:08:18;25.20;51.70
28374;DHT22;15616;40.148;-102.718;2022-07-22T08:10:44;25.20;51.60
28374;DHT22;15616;40.148;-102.718;2022-07-22T08:13:10;25.20;51.60
28374;DHT22;15616;40.148;-102.718;2022-07-22T08:15:36;25.20;51.50
28374;DHT22;15616;40.148;-102.718;2022-07-22T08:18:02;25.30;51.50
28374;DHT22;15616;40.148;-102.718;2022-07-22T08:20:29;25.30;51.40
28374;DHT22;15616;40.148;-102.718;2022-07-22T08:22:55;25.30;51.20
28374;DHT22;15616;40.148;-102.718;2022-07-22T08:25:25;25.30;51.20
28374;DHT22;15616;40.148;-102.718;2022-07-22T08:27:51;25.30;51.10
28374;DHT22;15616;40.148;-102.718;2022-07-22T08:30:18;25.30;51.00
28374;DHT22;15616;40.148;-102.718;2022-07-22T08:32:45;25.30;50.90
28374;DHT22;15616;40.148;-102.718;2022-07-22T08:35:12;25.30;50.80
28374;DHT22;15616;40.148;-102.718;2022-07-22T08:37:38;25.30;50.80
28374;DHT22;15616;40.148;-102.718;2022-07-22T08:40:05;25.30;50.80
28374;DHT22;15616;40.148;-102.718;2022-07-22T08:42:37;25.30;50.90
28374;DHT22;15616;40.148;-102.718;2022-07-22T08:45:03;25.30;50.90
28374;DHT22;15616;40.148;-102.718;2022-07-22T08:47:29;25.30;50.80
28374;DHT22;15616;40.148;-102.718;2022-07-22T08:49:56;25.30;50.70
28374;DHT22;15616;40.148;-102.718;2022-07-22T08:52:22;25.30;50.60
28374;DHT22;15616;40.148;-102.718;2022-07-22T08:54:48;25.30;50.60
28374;DHT22;15616;40.148;-102.718;2022-07-22T08:57:14;25.30;50.60
28374;DHT22;15616;40.148;-102.718;2022-07-22T09:00:00;25.30;50.50
28374;DHT22;15616;40.148;-102.718;2022-07-22T09:02:27;25.30;50.30
28374;DHT22;15616;40.148;-102.718;2022-07-22T09:05:03;25.30;50.30
28374;DHT22;15616;40.148;-102.718;2022-07-22T09:07:33;25.20;50.30
28374;DHT22;15616;40.148;-102.718;2022-07-22T09:10:01;25.30;50.30
28374;DHT22;15616;40.148;-102.718;2022-07-22T09:12:28;25.30;50.00
28374;DHT22;15616;40.148;-102.718;2022-07-22T09:14:57;25.30;49.80
28374;DHT22;15616;40.148;-102.718;2022-07-22T09:19:50;25.30;49.80
28374;DHT22;15616;40.148;-102.718;2022-07-22T09:22:31;25.30;49.70
28374;DHT22;15616;40.148;-102.718;2022-07-22T09:25:02;25.30;49.50
28374;DHT22;15616;40.148;-102.718;2022-07-22T09:27:42;25.30;49.50
28374;DHT22;15616;40.148;-102.718;2022-07-22T09:30:12;25.30;49.50
28374;DHT22;15616;40.148;-102.718;2022-07-22T09:32:42;25.30;49.40
28374;DHT22;15616;40.148;-102.718;2022-07-22T09:35:10;25.30;49.40
28374;DHT22;15616;40.148;-102.718;2022-07-22T09:37:54;25.30;49.40
28374;DHT22;15616;40.148;-102.718;2022-07-22T09:40:23;25.30;50.00
28374;DHT22;15616;40.148;-102.718;2022-07-22T09:42:55;25.30;49.40
28374;DHT22;15616;40.148;-102.718;2022-07-22T09:45:24;25.30;49.30
28374;DHT22;15616;40.148;-102.718;2022-07-22T09:47:51;25.30;49.30
28374;DHT22;15616;40.148;-102.718;2022-07-22T09:50:33;25.30;49.20
28374;DHT22;15616;40.148;-102.718;2022-07-22T09:53:00;25.40;49.10
28374;DHT22;15616;40.148;-102.718;2022-07-22T09:55:42;25.40;49.20
28374;DHT22;15616;40.148;-102.718;2022-07-22T09:58:08;25.50;49.10
28374;DHT22;15616;40.148;-102.718;2022-07-22T10:00:36;25.40;49.10
28374;DHT22;15616;40.148;-102.718;2022-07-22T10:03:05;25.40;49.10
28374;DHT22;15616;40.148;-102.718;2022-07-22T10:05:37;25.40;48.90
28374;DHT22;15616;40.148;-102.718;2022-07-22T10:08:06;25.40;49.00
28374;DHT22;15616;40.148;-102.718;2022-07-22T10:10:34;25.40;48.90
28374;DHT22;15616;40.148;-102.718;2022-07-22T10:13:02;25.40;49.00
28374;DHT22;15616;40.148;-102.718;2022-07-22T10:15:29;25.40;48.90
28374;DHT22;15616;40.148;-102.718;2022-07-22T10:17:58;25.40;48.80
28374;DHT22;15616;40.148;-102.718;2022-07-22T10:20:28;25.40;48.70
28374;DHT22;15616;40.148;-102.718;2022-07-22T10:23:01;25.50;48.70
28374;DHT22;15616;40.148;-102.718;2022-07-22T10:25:48;25.60;48.60
28374;DHT22;15616;40.148;-102.718;2022-07-22T10:28:31;25.50;48.40
28374;DHT22;15616;40.148;-102.718;2022-07-22T10:33:41;25.60;48.40
28374;DHT22;15616;40.148;-102.718;2022-07-22T10:36:09;25.60;48.50
28374;DHT22;15616;40.148;-102.718;2022-07-22T10:38:35;25.50;48.40
28374;DHT22;15616;40.148;-102.718;2022-07-22T10:43:30;25.60;48.30
28374;DHT22;15616;40.148;-102.718;2022-07-22T10:45:57;25.60;48.20
28374;DHT22;15616;40.148;-102.718;2022-07-22T10:48:44;25.60;48.10
28374;DHT22;15616;40.148;-102.718;2022-07-22T10:51:18;25.60;48.00
28374;DHT22;15616;40.148;-102.718;2022-07-22T10:53:56;25.60;48.00
28374;DHT22;15616;40.148;-102.718;2022-07-22T10:56:33;25.60;47.80
28374;DHT22;15616;40.148;-102.718;2022-07-22T10:59:14;25.60;47.80
28374;DHT22;15616;40.148;-102.718;2022-07-22T11:01:42;25.70;47.80
28374;DHT22;15616;40.148;-102.718;2022-07-22T11:04:18;25.60;47.80
28374;DHT22;15616;40.148;-102.718;2022-07-22T11:06:46;25.70;47.80
28374;DHT22;15616;40.148;-102.718;2022-07-22T11:09:13;25.70;47.90
28374;DHT22;15616;40.148;-102.718;2022-07-22T11:11:53;25.70;47.90
28374;DHT22;15616;40.148;-102.718;2022-07-22T11:14:28;25.70;47.80
28374;DHT22;15616;40.148;-102.718;2022-07-22T11:16:58;25.70;47.80
28374;DHT22;15616;40.148;-102.718;2022-07-22T11:19:28;25.70;47.80
28374;DHT22;15616;40.148;-102.718;2022-07-22T11:22:02;25.70;47.90
28374;DHT22;15616;40.148;-102.718;2022-07-22T11:24:30;25.70;47.80
28374;DHT22;15616;40.148;-102.718;2022-07-22T11:26:56;25.70;47.90
28374;DHT22;15616;40.148;-102.718;2022-07-22T11:29:32;25.70;48.00
28374;DHT22;15616;40.148;-102.718;2022-07-22T11:32:04;25.80;48.00
28374;DHT22;15616;40.148;-102.718;2022-07-22T11:34:31;25.80;48.00
28374;DHT22;15616;40.148;-102.718;2022-07-22T11:36:57;25.80;48.00
28374;DHT22;15616;40.148;-102.718;2022-07-22T11:39:26;25.80;48.00
28374;DHT22;15616;40.148;-102.718;2022-07-22T11:41:55;25.80;48.00
28374;DHT22;15616;40.148;-102.718;2022-07-22T11:44:26;25.80;48.00
28374;DHT22;15616;40.148;-102.718;2022-07-22T11:46:52;25.80;48.00
28374;DHT22;15616;40.148;-102.718;2022-07-22T11:49:20;25.80;48.10
28374;DHT22;15616;40.148;-102.718;2022-07-22T11:51:47;25.80;48.00
28374;DHT22;15616;40.148;-102.718;2022-07-22T11:54:13;25.80;47.90
28374;DHT22;15616;40.148;-102.718;2022-07-22T11:56:40;25.80;47.80
28374;DHT22;15616;40.148;-102.718;2022-07-22T11:59:07;25.80;47.90
28374;DHT22;15616;40.148;-102.718;2022-07-22T12:01:36;25.80;47.80
28374;DHT22;15616;40.148;-102.718;2022-07-22T12:04:05;25.90;47.90
28374;DHT22;15616;40.148;-102.718;2022-07-22T12:06:32;25.90;47.90
28374;DHT22;15616;40.148;-102.718;2022-07-22T12:09:20;25.90;47.90
28374;DHT22;15616;40.148;-102.718;2022-07-22T12:11:51;25.90;47.80
28374;DHT22;15616;40.148;-102.718;2022-07-22T12:14:22;25.90;47.90
28374;DHT22;15616;40.148;-102.718;2022-07-22T12:19:24;25.90;47.80
28374;DHT22;15616;40.148;-102.718;2022-07-22T12:21:54;25.90;47.80
28374;DHT22;15616;40.148;-102.718;2022-07-22T12:25:13;25.90;47.80
28374;DHT22;15616;40.148;-102.718;2022-07-22T12:27:17;25.90;47.70
28374;DHT22;15616;40.148;-102.718;2022-07-22T12:29:48;25.90;47.80
28374;DHT22;15616;40.148;-102.718;2022-07-22T12:32:16;25.90;47.70
28374;DHT22;15616;40.148;-102.718;2022-07-22T12:34:54;25.90;47.70
28374;DHT22;15616;40.148;-102.718;2022-07-22T12:37:21;25.90;47.60
28374;DHT22;15616;40.148;-102.718;2022-07-22T12:40:00;25.90;47.60
28374;DHT22;15616;40.148;-102.718;2022-07-22T12:42:47;25.90;47.50
28374;DHT22;15616;40.148;-102.718;2022-07-22T12:45:27;25.90;47.30
28374;DHT22;15616;40.148;-102.718;2022-07-22T12:50:38;25.90;47.60
28374;DHT22;15616;40.148;-102.718;2022-07-22T12:53:10;25.90;47.60
28374;DHT22;15616;40.148;-102.718;2022-07-22T12:55:41;25.90;47.60
28374;DHT22;15616;40.148;-102.718;2022-07-22T12:58:09;25.90;47.70
28374;DHT22;15616;40.148;-102.718;2022-07-22T13:00:40;25.90;47.60
28374;DHT22;15616;40.148;-102.718;2022-07-22T13:03:06;25.90;47.60
28374;DHT22;15616;40.148;-102.718;2022-07-22T13:05:33;25.90;47.60
28374;DHT22;15616;40.148;-102.718;2022-07-22T13:08:01;25.90;47.60
28374;DHT22;15616;40.148;-102.718;2022-07-22T13:10:27;25.90;47.60
28374;DHT22;15616;40.148;-102.718;2022-07-22T13:12:54;25.90;47.50
28374;DHT22;15616;40.148;-102.718;2022-07-22T13:15:20;25.90;47.40
28374;DHT22;15616;40.148;-102.718;2022-07-22T13:17:47;25.90;47.30
28374;DHT22;15616;40.148;-102.718;2022-07-22T13:20:14;25.90;47.20
28374;DHT22;15616;40.148;-102.718;2022-07-22T13:22:45;26.00;47.20
28374;DHT22;15616;40.148;-102.718;2022-07-22T13:25:12;25.90;47.00
28374;DHT22;15616;40.148;-102.718;2022-07-22T13:27:38;26.00;47.10
28374;DHT22;15616;40.148;-102.718;2022-07-22T13:30:06;26.00;47.70
28374;DHT22;15616;40.148;-102.718;2022-07-22T13:32:32;26.00;47.10
28374;DHT22;15616;40.148;-102.718;2022-07-22T13:34:59;26.00;47.10
28374;DHT22;15616;40.148;-102.718;2022-07-22T13:37:25;26.00;47.00
28374;DHT22;15616;40.148;-102.718;2022-07-22T13:39:51;26.00;47.10
28374;DHT22;15616;40.148;-102.718;2022-07-22T13:42:17;26.00;47.10
28374;DHT22;15616;40.148;-102.718;2022-07-22T13:44:48;25.90;47.00
28374;DHT22;15616;40.148;-102.718;2022-07-22T13:47:16;26.00;47.20
28374;DHT22;15616;40.148;-102.718;2022-07-22T13:49:43;26.00;47.30
28374;DHT22;15616;40.148;-102.718;2022-07-22T13:52:10;26.00;47.30
28374;DHT22;15616;40.148;-102.718;2022-07-22T13:54:36;26.00;47.10
28374;DHT22;15616;40.148;-102.718;2022-07-22T13:57:03;26.00;47.10
28374;DHT22;15616;40.148;-102.718;2022-07-22T13:59:29;26.00;47.20
28374;DHT22;15616;40.148;-102.718;2022-07-22T14:01:56;26.00;47.20
28374;DHT22;15616;40.148;-102.718;2022-07-22T14:04:23;26.00;47.20
28374;DHT22;15616;40.148;-102.718;2022-07-22T14:06:49;26.00;47.30
28374;DHT22;15616;40.148;-102.718;2022-07-22T14:09:15;26.00;47.30
28374;DHT22;15616;40.148;-102.718;2022-07-22T14:11:41;26.00;47.20
28374;DHT22;15616;40.148;-102.718;2022-07-22T14:14:07;26.00;47.20
28374;DHT22;15616;40.148;-102.718;2022-07-22T14:16:35;26.00;47.20
28374;DHT22;15616;40.148;-102.718;2022-07-22T14:19:08;26.00;47.30
28374;DHT22;15616;40.148;-102.718;2022-07-22T14:21:35;26.00;47.30
28374;DHT22;15616;40.148;-102.718;2022-07-22T14:24:02;26.00;47.20
28374;DHT22;15616;40.148;-102.718;2022-07-22T14:26:29;26.00;47.20
28374;DHT22;15616;40.148;-102.718;2022-07-22T14:28:55;26.00;47.20
28374;DHT22;15616;40.148;-102.718;2022-07-22T14:31:21;26.00;47.20
28374;DHT22;15616;40.148;-102.718;2022-07-22T14:33:48;26.00;47.20
28374;DHT22;15616;40.148;-102.718;2022-07-22T14:36:14;26.10;47.20
28374;DHT22;15616;40.148;-102.718;2022-07-22T14:38:41;26.10;47.10
28374;DHT22;15616;40.148;-102.718;2022-07-22T14:41:07;26.10;47.00
28374;DHT22;15616;40.148;-102.718;2022-07-22T14:43:34;26.10;47.00
28374;DHT22;15616;40.148;-102.718;2022-07-22T14:46:02;26.10;47.00
28374;DHT22;15616;40.148;-102.718;2022-07-22T14:48:30;26.10;46.90
28374;DHT22;15616;40.148;-102.718;2022-07-22T14:50:57;26.20;47.60
28374;DHT22;15616;40.148;-102.718;2022-07-22T14:53:23;26.10;46.80
28374;DHT22;15616;40.148;-102.718;2022-07-22T14:55:49;26.10;46.80
28374;DHT22;15616;40.148;-102.718;2022-07-22T14:58:16;26.10;46.80
28374;DHT22;15616;40.148;-102.718;2022-07-22T15:00:41;26.10;46.90
28374;DHT22;15616;40.148;-102.718;2022-07-22T15:03:08;26.10;46.90